GEN0015 LILC-LOWI
Flight info
| Callsign | GEN0015 |
|---|---|
| Flight time | 1h 18m |
| Altitude | 14000 |
| Route | LEGLO L615 OSKOR M985 TAGIP T876 EKPIS/N0168F160 M726 BRENO BRENO3A |
| Aircraft | C208/L-SDFGR/C |
Departure
| Time | 2026-05-07 16:48 |
|---|---|
| Airport | Calcinate del Pesce Airfield (LILC) |
Arrival
| Time | 2026-05-07 18:07 |
|---|---|
| Airport | Innsbruck Airport (LOWI) |
| Time | Latitude | Longitude | Altitude | Speed | Heading |
|---|---|---|---|---|---|
| 2026-05-07 16:12 | 45.81014 | 8.77023 | 814 ft | 0 kts | 103° |
| 2026-05-07 16:40 | 45.81014 | 8.77027 | 817 ft | 7 kts | 102° |
| 2026-05-07 16:40 | 45.80998 | 8.77132 | 818 ft | 5 kts | 102° |
| 2026-05-07 16:40 | 45.80994 | 8.77153 | 818 ft | 8 kts | 105° |
| 2026-05-07 16:41 | 45.80970 | 8.77202 | 817 ft | 10 kts | 102° |
| 2026-05-07 16:41 | 45.80950 | 8.77259 | 814 ft | 0 kts | 141° |
| 2026-05-07 16:43 | 45.80947 | 8.77263 | 813 ft | 7 kts | 141° |
| 2026-05-07 16:43 | 45.80923 | 8.77351 | 814 ft | 12 kts | 94° |
| 2026-05-07 16:43 | 45.80910 | 8.77391 | 814 ft | 6 kts | 198° |
| 2026-05-07 16:44 | 45.80925 | 8.77246 | 813 ft | 17 kts | 302° |
| 2026-05-07 16:44 | 45.80975 | 8.76987 | 814 ft | 16 kts | 282° |
| 2026-05-07 16:44 | 45.80995 | 8.76873 | 813 ft | 6 kts | 300° |
| 2026-05-07 16:44 | 45.80988 | 8.76849 | 813 ft | 7 kts | 181° |
| 2026-05-07 16:45 | 45.80979 | 8.76850 | 813 ft | 0 kts | 174° |
| 2026-05-07 16:45 | 45.80971 | 8.76888 | 814 ft | 0 kts | 46° |
| 2026-05-07 16:45 | 45.81050 | 8.76937 | 823 ft | 0 kts | 78° |
| 2026-05-07 16:45 | 45.81029 | 8.76798 | 823 ft | 0 kts | 78° |
| 2026-05-07 16:46 | 45.80993 | 8.76822 | 812 ft | 6 kts | 79° |
| 2026-05-07 16:46 | 45.80994 | 8.76863 | 813 ft | 0 kts | 103° |
| 2026-05-07 16:47 | 45.80988 | 8.76896 | 814 ft | 20 kts | 101° |
| 2026-05-07 16:48 | 45.80899 | 8.77470 | 915 ft | 77 kts | 101° |
| 2026-05-07 16:48 | 45.80747 | 8.78287 | 1177 ft | 89 kts | 102° |
| 2026-05-07 16:48 | 45.80597 | 8.79151 | 1449 ft | 90 kts | 101° |
| 2026-05-07 16:48 | 45.80473 | 8.80139 | 1596 ft | 117 kts | 101° |
| 2026-05-07 16:49 | 45.80324 | 8.81374 | 1929 ft | 131 kts | 97° |
| 2026-05-07 16:49 | 45.80190 | 8.82658 | 2408 ft | 130 kts | 98° |
| 2026-05-07 16:49 | 45.80054 | 8.83931 | 2846 ft | 128 kts | 100° |
| 2026-05-07 16:49 | 45.79910 | 8.85191 | 3312 ft | 128 kts | 102° |
| 2026-05-07 16:50 | 45.79753 | 8.86449 | 3793 ft | 128 kts | 102° |
| 2026-05-07 16:50 | 45.79597 | 8.87710 | 4209 ft | 129 kts | 101° |
| 2026-05-07 16:50 | 45.79454 | 8.88975 | 4698 ft | 129 kts | 102° |
| 2026-05-07 16:50 | 45.79302 | 8.90247 | 5152 ft | 130 kts | 103° |
| 2026-05-07 16:51 | 45.79143 | 8.91529 | 5584 ft | 131 kts | 103° |
| 2026-05-07 16:51 | 45.79025 | 8.92495 | 5932 ft | 131 kts | 103° |
| 2026-05-07 16:51 | 45.78906 | 8.93478 | 6389 ft | 90 kts | 103° |
| 2026-05-07 16:51 | 45.78818 | 8.94392 | 6558 ft | 105 kts | 102° |
| 2026-05-07 16:52 | 45.78703 | 8.95568 | 6430 ft | 139 kts | 102° |
| 2026-05-07 16:52 | 45.78520 | 8.97120 | 6250 ft | 171 kts | 103° |
| 2026-05-07 16:52 | 45.78284 | 8.98781 | 6147 ft | 168 kts | 105° |
| 2026-05-07 16:52 | 45.78033 | 9.00388 | 6184 ft | 167 kts | 106° |
| 2026-05-07 16:53 | 45.77765 | 9.02000 | 6215 ft | 166 kts | 107° |
| 2026-05-07 16:53 | 45.77482 | 9.03603 | 6237 ft | 166 kts | 108° |
| 2026-05-07 16:53 | 45.77179 | 9.05197 | 6253 ft | 166 kts | 109° |
| 2026-05-07 16:53 | 45.76858 | 9.06781 | 6288 ft | 165 kts | 110° |
| 2026-05-07 16:54 | 45.76521 | 9.08360 | 6297 ft | 165 kts | 111° |
| 2026-05-07 16:54 | 45.76169 | 9.09919 | 6298 ft | 165 kts | 112° |
| 2026-05-07 16:54 | 45.75798 | 9.11473 | 6322 ft | 165 kts | 113° |
| 2026-05-07 16:54 | 45.75413 | 9.13008 | 6370 ft | 164 kts | 114° |
| 2026-05-07 16:55 | 45.75007 | 9.14542 | 6366 ft | 165 kts | 115° |
| 2026-05-07 16:55 | 45.74581 | 9.16075 | 6371 ft | 166 kts | 116° |
| 2026-05-07 16:55 | 45.74138 | 9.17602 | 6397 ft | 166 kts | 117° |
| 2026-05-07 16:55 | 45.73678 | 9.19113 | 6383 ft | 166 kts | 118° |
| 2026-05-07 16:56 | 45.73202 | 9.20588 | 6380 ft | 166 kts | 120° |
| 2026-05-07 16:56 | 45.72702 | 9.22072 | 6389 ft | 166 kts | 120° |
| 2026-05-07 16:56 | 45.71848 | 9.25066 | 6524 ft | 165 kts | 98° |
| 2026-05-07 16:57 | 45.71834 | 9.26701 | 6597 ft | 164 kts | 95° |
| 2026-05-07 16:57 | 45.71813 | 9.28330 | 6672 ft | 164 kts | 95° |
| 2026-05-07 16:57 | 45.71799 | 9.29966 | 6744 ft | 164 kts | 95° |
| 2026-05-07 16:57 | 45.71779 | 9.31601 | 6822 ft | 164 kts | 95° |
| 2026-05-07 16:58 | 45.71671 | 9.33218 | 6898 ft | 163 kts | 102° |
| 2026-05-07 16:58 | 45.71519 | 9.34823 | 6976 ft | 163 kts | 102° |
| 2026-05-07 16:58 | 45.71366 | 9.36421 | 7047 ft | 161 kts | 101° |
| 2026-05-07 16:58 | 45.71213 | 9.37989 | 7122 ft | 159 kts | 102° |
| 2026-05-07 16:59 | 45.71067 | 9.39564 | 7198 ft | 160 kts | 102° |
| 2026-05-07 16:59 | 45.70920 | 9.41136 | 7275 ft | 162 kts | 102° |
| 2026-05-07 16:59 | 45.70760 | 9.42727 | 7349 ft | 161 kts | 104° |
| 2026-05-07 16:59 | 45.70557 | 9.44300 | 7428 ft | 161 kts | 105° |
| 2026-05-07 17:00 | 45.70351 | 9.45878 | 7501 ft | 161 kts | 105° |
| 2026-05-07 17:00 | 45.70150 | 9.47455 | 7582 ft | 161 kts | 105° |
| 2026-05-07 17:00 | 45.69949 | 9.49033 | 7655 ft | 162 kts | 105° |
| 2026-05-07 17:00 | 45.69745 | 9.50620 | 7668 ft | 162 kts | 105° |
| 2026-05-07 17:01 | 45.69542 | 9.52210 | 7743 ft | 163 kts | 105° |
| 2026-05-07 17:01 | 45.69345 | 9.53782 | 7821 ft | 163 kts | 105° |
| 2026-05-07 17:01 | 45.69146 | 9.55376 | 7894 ft | 163 kts | 105° |
| 2026-05-07 17:01 | 45.68949 | 9.56971 | 7970 ft | 163 kts | 105° |
| 2026-05-07 17:02 | 45.68750 | 9.58569 | 8045 ft | 163 kts | 105° |
| 2026-05-07 17:02 | 45.68543 | 9.60160 | 8128 ft | 163 kts | 107° |
| 2026-05-07 17:02 | 45.68293 | 9.61743 | 8197 ft | 163 kts | 108° |
| 2026-05-07 17:02 | 45.68042 | 9.63317 | 8275 ft | 162 kts | 108° |
| 2026-05-07 17:03 | 45.67784 | 9.64898 | 8346 ft | 163 kts | 109° |
| 2026-05-07 17:03 | 45.67511 | 9.66468 | 8422 ft | 163 kts | 110° |
| 2026-05-07 17:03 | 45.67225 | 9.68032 | 8499 ft | 162 kts | 110° |
| 2026-05-07 17:03 | 45.66929 | 9.69572 | 8576 ft | 162 kts | 111° |
| 2026-05-07 17:04 | 45.66615 | 9.71124 | 8653 ft | 162 kts | 112° |
| 2026-05-07 17:04 | 45.66287 | 9.72669 | 8732 ft | 162 kts | 112° |
| 2026-05-07 17:04 | 45.65944 | 9.74210 | 8812 ft | 162 kts | 113° |
| 2026-05-07 17:04 | 45.65587 | 9.75745 | 8889 ft | 163 kts | 114° |
| 2026-05-07 17:05 | 45.65215 | 9.77278 | 8970 ft | 163 kts | 115° |
| 2026-05-07 17:05 | 45.64829 | 9.78805 | 9044 ft | 163 kts | 116° |
| 2026-05-07 17:05 | 45.64501 | 9.80361 | 9117 ft | 166 kts | 104° |
| 2026-05-07 17:05 | 45.64552 | 9.82034 | 9193 ft | 170 kts | 88° |
| 2026-05-07 17:06 | 45.64694 | 9.83716 | 9268 ft | 170 kts | 88° |
| 2026-05-07 17:06 | 45.64837 | 9.85401 | 9350 ft | 171 kts | 88° |
| 2026-05-07 17:06 | 45.64980 | 9.87085 | 9421 ft | 171 kts | 88° |
| 2026-05-07 17:06 | 45.65127 | 9.88776 | 9506 ft | 172 kts | 88° |
| 2026-05-07 17:07 | 45.65272 | 9.90459 | 9576 ft | 172 kts | 88° |
| 2026-05-07 17:07 | 45.65414 | 9.92165 | 9658 ft | 173 kts | 88° |
| 2026-05-07 17:07 | 45.65558 | 9.93873 | 9737 ft | 173 kts | 88° |
| 2026-05-07 17:07 | 45.65663 | 9.95576 | 9816 ft | 171 kts | 92° |
| 2026-05-07 17:08 | 45.65709 | 9.97280 | 9887 ft | 172 kts | 92° |
| 2026-05-07 17:08 | 45.65759 | 9.98979 | 9959 ft | 171 kts | 93° |
| 2026-05-07 17:08 | 45.65803 | 10.00678 | 10029 ft | 171 kts | 93° |
| 2026-05-07 17:08 | 45.65846 | 10.02377 | 10100 ft | 171 kts | 93° |
| 2026-05-07 17:09 | 45.65892 | 10.04080 | 10168 ft | 172 kts | 93° |
| 2026-05-07 17:09 | 45.65938 | 10.05785 | 10243 ft | 172 kts | 93° |
| 2026-05-07 17:09 | 45.65984 | 10.07499 | 10314 ft | 173 kts | 93° |
| 2026-05-07 17:09 | 45.66029 | 10.09219 | 10381 ft | 173 kts | 93° |
| 2026-05-07 17:10 | 45.66080 | 10.10947 | 10444 ft | 176 kts | 85° |
| 2026-05-07 17:10 | 45.66560 | 10.12579 | 10508 ft | 180 kts | 65° |
| 2026-05-07 17:10 | 45.67148 | 10.14157 | 10582 ft | 180 kts | 65° |
| 2026-05-07 17:10 | 45.67734 | 10.15734 | 10656 ft | 180 kts | 65° |
| 2026-05-07 17:11 | 45.68310 | 10.17326 | 10727 ft | 181 kts | 66° |
| 2026-05-07 17:11 | 45.68964 | 10.18857 | 10800 ft | 183 kts | 58° |
| 2026-05-07 17:11 | 45.69683 | 10.20354 | 10866 ft | 181 kts | 58° |
| 2026-05-07 17:11 | 45.70391 | 10.21839 | 10948 ft | 180 kts | 58° |
| 2026-05-07 17:12 | 45.71099 | 10.23312 | 11020 ft | 180 kts | 58° |
| 2026-05-07 17:12 | 45.71806 | 10.24795 | 11097 ft | 181 kts | 58° |
| 2026-05-07 17:12 | 45.72520 | 10.26290 | 11179 ft | 182 kts | 58° |
| 2026-05-07 17:12 | 45.73235 | 10.27788 | 11251 ft | 182 kts | 58° |
| 2026-05-07 17:13 | 45.73955 | 10.29283 | 11327 ft | 182 kts | 58° |
| 2026-05-07 17:13 | 45.74661 | 10.30763 | 11400 ft | 183 kts | 58° |
| 2026-05-07 17:13 | 45.75380 | 10.32268 | 11484 ft | 183 kts | 58° |
| 2026-05-07 17:13 | 45.76094 | 10.33771 | 11563 ft | 183 kts | 58° |
| 2026-05-07 17:14 | 45.76814 | 10.35272 | 11638 ft | 182 kts | 57° |
| 2026-05-07 17:14 | 45.77528 | 10.36771 | 11712 ft | 181 kts | 58° |
| 2026-05-07 17:14 | 45.78240 | 10.38271 | 11789 ft | 183 kts | 58° |
| 2026-05-07 17:14 | 45.78956 | 10.39791 | 11863 ft | 184 kts | 58° |
| 2026-05-07 17:15 | 45.79671 | 10.41292 | 11945 ft | 183 kts | 58° |
| 2026-05-07 17:15 | 45.80387 | 10.42797 | 12020 ft | 183 kts | 58° |
| 2026-05-07 17:15 | 45.81105 | 10.44309 | 12100 ft | 183 kts | 58° |
| 2026-05-07 17:15 | 45.81811 | 10.45801 | 12169 ft | 183 kts | 58° |
| 2026-05-07 17:16 | 45.82525 | 10.47293 | 12255 ft | 182 kts | 58° |
| 2026-05-07 17:16 | 45.83242 | 10.48805 | 12330 ft | 183 kts | 58° |
| 2026-05-07 17:16 | 45.83961 | 10.50312 | 12410 ft | 183 kts | 58° |
| 2026-05-07 17:16 | 45.84680 | 10.51826 | 12492 ft | 184 kts | 58° |
| 2026-05-07 17:17 | 45.85396 | 10.53338 | 12569 ft | 183 kts | 58° |
| 2026-05-07 17:17 | 45.86110 | 10.54846 | 12642 ft | 182 kts | 58° |
| 2026-05-07 17:17 | 45.86823 | 10.56347 | 12721 ft | 182 kts | 58° |
| 2026-05-07 17:17 | 45.87533 | 10.57849 | 12802 ft | 182 kts | 58° |
| 2026-05-07 17:18 | 45.88247 | 10.59354 | 12881 ft | 182 kts | 58° |
| 2026-05-07 17:18 | 45.88951 | 10.60842 | 12956 ft | 183 kts | 58° |
| 2026-05-07 17:18 | 45.89671 | 10.62354 | 13042 ft | 183 kts | 58° |
| 2026-05-07 17:18 | 45.90390 | 10.63864 | 13123 ft | 183 kts | 58° |
| 2026-05-07 17:19 | 45.91113 | 10.65378 | 13195 ft | 184 kts | 58° |
| 2026-05-07 17:19 | 45.91828 | 10.66886 | 13263 ft | 182 kts | 58° |
| 2026-05-07 17:19 | 45.92531 | 10.68384 | 13366 ft | 183 kts | 58° |
| 2026-05-07 17:19 | 45.93251 | 10.69905 | 13438 ft | 185 kts | 58° |
| 2026-05-07 17:20 | 45.93971 | 10.71423 | 13507 ft | 181 kts | 58° |
| 2026-05-07 17:20 | 45.94681 | 10.72916 | 13599 ft | 182 kts | 58° |
| 2026-05-07 17:20 | 45.95394 | 10.74420 | 13680 ft | 183 kts | 58° |
| 2026-05-07 17:20 | 45.96108 | 10.75931 | 13767 ft | 187 kts | 58° |
| 2026-05-07 17:21 | 45.96841 | 10.77480 | 13832 ft | 186 kts | 58° |
| 2026-05-07 17:21 | 45.97572 | 10.79023 | 13916 ft | 188 kts | 58° |
| 2026-05-07 17:21 | 45.98303 | 10.80572 | 13993 ft | 187 kts | 58° |
| 2026-05-07 17:21 | 45.99055 | 10.82112 | 14016 ft | 190 kts | 51° |
| 2026-05-07 17:22 | 46.00180 | 10.83075 | 14017 ft | 191 kts | 10° |
| 2026-05-07 17:22 | 46.01518 | 10.83338 | 14027 ft | 192 kts | 3° |
| 2026-05-07 17:22 | 46.02829 | 10.83581 | 14040 ft | 193 kts | 5° |
| 2026-05-07 17:22 | 46.04176 | 10.83858 | 14050 ft | 197 kts | 6° |
| 2026-05-07 17:23 | 46.05549 | 10.84165 | 14046 ft | 202 kts | 6° |
| 2026-05-07 17:23 | 46.06920 | 10.84499 | 14047 ft | 201 kts | 7° |
| 2026-05-07 17:23 | 46.08299 | 10.84861 | 14056 ft | 204 kts | 8° |
| 2026-05-07 17:23 | 46.09701 | 10.85256 | 14054 ft | 205 kts | 9° |
| 2026-05-07 17:24 | 46.11089 | 10.85676 | 14057 ft | 205 kts | 10° |
| 2026-05-07 17:24 | 46.12478 | 10.86128 | 14062 ft | 204 kts | 11° |
| 2026-05-07 17:24 | 46.13850 | 10.86603 | 14054 ft | 202 kts | 12° |
| 2026-05-07 17:24 | 46.15218 | 10.87031 | 14045 ft | 200 kts | 4° |
| 2026-05-07 17:25 | 46.16599 | 10.87219 | 14052 ft | 199 kts | 6° |
| 2026-05-07 17:25 | 46.17927 | 10.87832 | 14067 ft | 204 kts | 25° |
| 2026-05-07 17:25 | 46.19170 | 10.88838 | 14069 ft | 204 kts | 30° |
| 2026-05-07 17:25 | 46.20415 | 10.89858 | 14073 ft | 206 kts | 28° |
| 2026-05-07 17:26 | 46.21663 | 10.90824 | 14063 ft | 205 kts | 27° |
| 2026-05-07 17:26 | 46.22917 | 10.91789 | 14063 ft | 202 kts | 28° |
| 2026-05-07 17:26 | 46.24154 | 10.92746 | 14065 ft | 202 kts | 27° |
| 2026-05-07 17:26 | 46.25393 | 10.93711 | 14069 ft | 202 kts | 27° |
| 2026-05-07 17:27 | 46.26632 | 10.94674 | 14064 ft | 202 kts | 27° |
| 2026-05-07 17:27 | 46.27871 | 10.95636 | 14062 ft | 201 kts | 28° |
| 2026-05-07 17:27 | 46.29107 | 10.96595 | 14068 ft | 202 kts | 27° |
| 2026-05-07 17:27 | 46.30337 | 10.97553 | 14075 ft | 201 kts | 27° |
| 2026-05-07 17:28 | 46.31570 | 10.98511 | 14076 ft | 201 kts | 27° |
| 2026-05-07 17:28 | 46.32800 | 10.99468 | 14062 ft | 199 kts | 27° |
| 2026-05-07 17:28 | 46.34004 | 11.00404 | 14074 ft | 199 kts | 27° |
| 2026-05-07 17:28 | 46.35223 | 11.01354 | 14074 ft | 199 kts | 27° |
| 2026-05-07 17:29 | 46.36444 | 11.02310 | 14072 ft | 200 kts | 27° |
| 2026-05-07 17:29 | 46.37670 | 11.03265 | 14073 ft | 201 kts | 27° |
| 2026-05-07 17:29 | 46.38912 | 11.04234 | 14078 ft | 202 kts | 27° |
| 2026-05-07 17:29 | 46.40153 | 11.05201 | 14076 ft | 204 kts | 27° |
| 2026-05-07 17:30 | 46.40977 | 11.05848 | 14078 ft | 203 kts | 27° |
| 2026-05-07 17:30 | 46.42220 | 11.06819 | 14077 ft | 202 kts | 27° |
| 2026-05-07 17:30 | 46.43458 | 11.07785 | 14072 ft | 201 kts | 27° |
| 2026-05-07 17:30 | 46.44696 | 11.08752 | 14069 ft | 202 kts | 27° |
| 2026-05-07 17:31 | 46.45928 | 11.09718 | 14067 ft | 202 kts | 27° |
| 2026-05-07 17:31 | 46.47163 | 11.10685 | 13960 ft | 201 kts | 27° |
| 2026-05-07 17:31 | 46.48398 | 11.11653 | 13956 ft | 202 kts | 27° |
| 2026-05-07 17:31 | 46.49634 | 11.12623 | 13959 ft | 202 kts | 27° |
| 2026-05-07 17:32 | 46.50874 | 11.13593 | 13958 ft | 203 kts | 27° |
| 2026-05-07 17:32 | 46.52118 | 11.14571 | 13956 ft | 203 kts | 27° |
| 2026-05-07 17:32 | 46.53343 | 11.15535 | 13947 ft | 202 kts | 26° |
| 2026-05-07 17:32 | 46.54572 | 11.16498 | 13949 ft | 199 kts | 27° |
| 2026-05-07 17:33 | 46.55792 | 11.17456 | 13952 ft | 199 kts | 27° |
| 2026-05-07 17:33 | 46.57006 | 11.18413 | 13937 ft | 192 kts | 27° |
| 2026-05-07 17:33 | 46.58185 | 11.19334 | 13962 ft | 195 kts | 27° |
| 2026-05-07 17:33 | 46.59389 | 11.20282 | 13966 ft | 198 kts | 28° |
| 2026-05-07 17:34 | 46.60607 | 11.21247 | 13970 ft | 200 kts | 27° |
| 2026-05-07 17:34 | 46.61835 | 11.22215 | 13968 ft | 201 kts | 27° |
| 2026-05-07 17:34 | 46.63065 | 11.23184 | 13973 ft | 201 kts | 27° |
| 2026-05-07 17:34 | 46.64295 | 11.24151 | 13976 ft | 201 kts | 27° |
| 2026-05-07 17:35 | 46.65530 | 11.25128 | 13977 ft | 202 kts | 27° |
| 2026-05-07 17:35 | 46.66761 | 11.26100 | 13979 ft | 202 kts | 27° |
| 2026-05-07 17:35 | 46.67996 | 11.27075 | 13985 ft | 202 kts | 27° |
| 2026-05-07 17:35 | 46.69230 | 11.28051 | 13987 ft | 201 kts | 27° |
| 2026-05-07 17:36 | 46.70457 | 11.29021 | 13980 ft | 199 kts | 27° |
| 2026-05-07 17:36 | 46.71671 | 11.29981 | 13995 ft | 200 kts | 27° |
| 2026-05-07 17:36 | 46.72898 | 11.30955 | 13991 ft | 201 kts | 27° |
| 2026-05-07 17:36 | 46.74122 | 11.31920 | 14001 ft | 200 kts | 27° |
| 2026-05-07 17:37 | 46.75334 | 11.32884 | 13996 ft | 201 kts | 28° |
| 2026-05-07 17:37 | 46.76560 | 11.33857 | 13997 ft | 201 kts | 27° |
| 2026-05-07 17:37 | 46.77783 | 11.34825 | 14010 ft | 200 kts | 27° |
| 2026-05-07 17:37 | 46.79077 | 11.35591 | 13989 ft | 200 kts | 8° |
| 2026-05-07 17:38 | 46.80451 | 11.35754 | 14000 ft | 197 kts | 1° |
| 2026-05-07 17:38 | 46.81821 | 11.35902 | 13999 ft | 198 kts | 2° |
| 2026-05-07 17:38 | 46.83174 | 11.36056 | 14003 ft | 193 kts | 2° |
| 2026-05-07 17:38 | 46.84517 | 11.36203 | 13998 ft | 193 kts | 2° |
| 2026-05-07 17:39 | 46.85851 | 11.36350 | 14000 ft | 193 kts | 1° |
| 2026-05-07 17:39 | 46.87197 | 11.36495 | 14001 ft | 193 kts | 1° |
| 2026-05-07 17:39 | 46.88539 | 11.36642 | 13997 ft | 193 kts | 2° |
| 2026-05-07 17:39 | 46.89877 | 11.36789 | 14003 ft | 194 kts | 1° |
| 2026-05-07 17:40 | 46.91228 | 11.36938 | 14006 ft | 195 kts | 1° |
| 2026-05-07 17:40 | 46.92567 | 11.37085 | 14008 ft | 195 kts | 1° |
| 2026-05-07 17:40 | 46.93907 | 11.37233 | 14005 ft | 191 kts | 1° |
| 2026-05-07 17:40 | 46.95220 | 11.37375 | 14008 ft | 188 kts | 1° |
| 2026-05-07 17:41 | 46.96529 | 11.37543 | 14012 ft | 192 kts | 7° |
| 2026-05-07 17:41 | 46.97774 | 11.38313 | 14002 ft | 197 kts | 34° |
| 2026-05-07 17:41 | 46.98719 | 11.39735 | 14010 ft | 195 kts | 58° |
| 2026-05-07 17:41 | 46.99359 | 11.41495 | 14016 ft | 197 kts | 64° |
| 2026-05-07 17:42 | 46.99999 | 11.43275 | 14010 ft | 197 kts | 63° |
| 2026-05-07 17:42 | 47.00639 | 11.45057 | 14017 ft | 199 kts | 64° |
| 2026-05-07 17:42 | 47.01264 | 11.46816 | 14016 ft | 197 kts | 63° |
| 2026-05-07 17:42 | 47.01902 | 11.48600 | 14012 ft | 198 kts | 63° |
| 2026-05-07 17:43 | 47.02537 | 11.50377 | 14012 ft | 196 kts | 63° |
| 2026-05-07 17:43 | 47.03171 | 11.52156 | 14007 ft | 197 kts | 63° |
| 2026-05-07 17:43 | 47.03806 | 11.53934 | 14008 ft | 196 kts | 64° |
| 2026-05-07 17:43 | 47.04437 | 11.55706 | 14015 ft | 197 kts | 63° |
| 2026-05-07 17:44 | 47.05073 | 11.57492 | 14016 ft | 199 kts | 63° |
| 2026-05-07 17:44 | 47.05712 | 11.59290 | 14016 ft | 199 kts | 63° |
| 2026-05-07 17:44 | 47.06353 | 11.61089 | 14009 ft | 198 kts | 63° |
| 2026-05-07 17:44 | 47.06991 | 11.62887 | 14019 ft | 200 kts | 63° |
| 2026-05-07 17:45 | 47.07633 | 11.64702 | 14016 ft | 201 kts | 63° |
| 2026-05-07 17:45 | 47.08277 | 11.66511 | 14008 ft | 199 kts | 63° |
| 2026-05-07 17:45 | 47.08917 | 11.68314 | 14016 ft | 200 kts | 63° |
| 2026-05-07 17:45 | 47.09558 | 11.70124 | 14012 ft | 200 kts | 63° |
| 2026-05-07 17:46 | 47.10200 | 11.71940 | 14012 ft | 200 kts | 63° |
| 2026-05-07 17:46 | 47.10844 | 11.73756 | 14009 ft | 200 kts | 63° |
| 2026-05-07 17:46 | 47.11672 | 11.75372 | 14006 ft | 199 kts | 40° |
| 2026-05-07 17:46 | 47.12762 | 11.76359 | 14003 ft | 180 kts | 19° |
| 2026-05-07 17:47 | 47.13957 | 11.77015 | 14010 ft | 186 kts | 18° |
| 2026-05-07 17:47 | 47.15175 | 11.77733 | 14016 ft | 192 kts | 19° |
| 2026-05-07 17:47 | 47.16462 | 11.78492 | 13785 ft | 205 kts | 19° |
| 2026-05-07 17:47 | 47.17798 | 11.79276 | 13518 ft | 205 kts | 20° |
| 2026-05-07 17:48 | 47.19116 | 11.80041 | 13260 ft | 203 kts | 19° |
| 2026-05-07 17:48 | 47.20426 | 11.80797 | 12994 ft | 201 kts | 19° |
| 2026-05-07 17:48 | 47.21717 | 11.81539 | 12737 ft | 199 kts | 19° |
| 2026-05-07 17:48 | 47.23010 | 11.82298 | 12472 ft | 200 kts | 20° |
| 2026-05-07 17:49 | 47.24302 | 11.83055 | 12168 ft | 198 kts | 20° |
| 2026-05-07 17:49 | 47.25506 | 11.83765 | 11758 ft | 176 kts | 20° |
| 2026-05-07 17:49 | 47.26585 | 11.84428 | 11363 ft | 162 kts | 21° |
| 2026-05-07 17:49 | 47.27611 | 11.85093 | 10972 ft | 169 kts | 21° |
| 2026-05-07 17:50 | 47.28738 | 11.85827 | 10632 ft | 183 kts | 22° |
| 2026-05-07 17:50 | 47.29922 | 11.86624 | 10291 ft | 190 kts | 24° |
| 2026-05-07 17:50 | 47.31122 | 11.87477 | 9941 ft | 193 kts | 25° |
| 2026-05-07 17:50 | 47.32249 | 11.88339 | 9548 ft | 172 kts | 27° |
| 2026-05-07 17:51 | 47.33205 | 11.89137 | 9485 ft | 147 kts | 28° |
| 2026-05-07 17:51 | 47.34150 | 11.89918 | 9501 ft | 164 kts | 27° |
| 2026-05-07 17:51 | 47.35174 | 11.90760 | 9518 ft | 172 kts | 27° |
| 2026-05-07 17:51 | 47.36229 | 11.91654 | 9513 ft | 177 kts | 28° |
| 2026-05-07 17:52 | 47.37294 | 11.92581 | 9513 ft | 178 kts | 30° |
| 2026-05-07 17:52 | 47.38348 | 11.93540 | 9511 ft | 178 kts | 30° |
| 2026-05-07 17:52 | 47.39393 | 11.94523 | 9516 ft | 178 kts | 31° |
| 2026-05-07 17:52 | 47.40431 | 11.95532 | 9513 ft | 179 kts | 32° |
| 2026-05-07 17:53 | 47.41463 | 11.96568 | 9504 ft | 179 kts | 32° |
| 2026-05-07 17:53 | 47.42474 | 11.97620 | 9508 ft | 178 kts | 34° |
| 2026-05-07 17:53 | 47.43470 | 11.98687 | 9510 ft | 179 kts | 35° |
| 2026-05-07 17:53 | 47.44489 | 11.99739 | 9505 ft | 177 kts | 24° |
| 2026-05-07 17:54 | 47.45678 | 11.99906 | 9459 ft | 173 kts | 341° |
| 2026-05-07 17:54 | 47.46564 | 11.98940 | 9386 ft | 150 kts | 298° |
| 2026-05-07 17:54 | 47.46673 | 11.97588 | 9445 ft | 125 kts | 259° |
| 2026-05-07 17:54 | 47.46345 | 11.96451 | 9446 ft | 118 kts | 243° |
| 2026-05-07 17:55 | 47.45892 | 11.95405 | 9213 ft | 126 kts | 232° |
| 2026-05-07 17:55 | 47.45339 | 11.94356 | 8867 ft | 133 kts | 237° |
| 2026-05-07 17:55 | 47.44813 | 11.93181 | 8389 ft | 141 kts | 239° |
| 2026-05-07 17:55 | 47.44308 | 11.91938 | 8064 ft | 135 kts | 240° |
| 2026-05-07 17:56 | 47.43865 | 11.90821 | 8073 ft | 119 kts | 243° |
| 2026-05-07 17:56 | 47.43488 | 11.89775 | 8052 ft | 113 kts | 243° |
| 2026-05-07 17:56 | 47.43120 | 11.88755 | 8027 ft | 112 kts | 243° |
| 2026-05-07 17:56 | 47.42749 | 11.87751 | 8016 ft | 111 kts | 243° |
| 2026-05-07 17:57 | 47.42366 | 11.86711 | 8010 ft | 122 kts | 243° |
| 2026-05-07 17:57 | 47.42089 | 11.85948 | 7924 ft | 134 kts | 243° |
| 2026-05-07 17:57 | 47.41350 | 11.84338 | 7610 ft | 147 kts | 236° |
| 2026-05-07 17:57 | 47.40747 | 11.83118 | 7378 ft | 150 kts | 236° |
| 2026-05-07 17:58 | 47.40126 | 11.81861 | 7134 ft | 152 kts | 236° |
| 2026-05-07 17:58 | 47.39499 | 11.80589 | 6888 ft | 154 kts | 236° |
| 2026-05-07 17:58 | 47.38870 | 11.79306 | 6648 ft | 155 kts | 236° |
| 2026-05-07 17:58 | 47.38239 | 11.78012 | 6403 ft | 156 kts | 236° |
| 2026-05-07 17:59 | 47.37608 | 11.76711 | 6137 ft | 156 kts | 236° |
| 2026-05-07 17:59 | 47.36974 | 11.75403 | 5881 ft | 157 kts | 235° |
| 2026-05-07 17:59 | 47.36355 | 11.74113 | 5809 ft | 148 kts | 235° |
| 2026-05-07 17:59 | 47.35768 | 11.72897 | 5813 ft | 144 kts | 235° |
| 2026-05-07 18:00 | 47.35572 | 11.72492 | 5805 ft | 144 kts | 235° |
| 2026-05-07 18:01 | 47.32288 | 11.65173 | 4841 ft | 164 kts | 238° |
| 2026-05-07 18:01 | 47.31717 | 11.63745 | 4679 ft | 161 kts | 239° |
| 2026-05-07 18:01 | 47.31162 | 11.62344 | 4604 ft | 154 kts | 239° |
| 2026-05-07 18:02 | 47.30054 | 11.59704 | 4449 ft | 160 kts | 245° |
| 2026-05-07 18:02 | 47.29831 | 11.58218 | 4636 ft | 143 kts | 263° |
| 2026-05-07 18:02 | 47.29736 | 11.56787 | 4848 ft | 136 kts | 264° |
| 2026-05-07 18:03 | 47.29590 | 11.55392 | 4985 ft | 142 kts | 262° |
| 2026-05-07 18:03 | 47.29422 | 11.53939 | 5134 ft | 145 kts | 257° |
| 2026-05-07 18:03 | 47.29202 | 11.52423 | 5065 ft | 155 kts | 257° |
| 2026-05-07 18:03 | 47.28985 | 11.50861 | 5044 ft | 156 kts | 257° |
| 2026-05-07 18:04 | 47.28732 | 11.49262 | 4866 ft | 163 kts | 258° |
| 2026-05-07 18:04 | 47.28492 | 11.47632 | 4696 ft | 161 kts | 258° |
| 2026-05-07 18:04 | 47.28241 | 11.46039 | 4588 ft | 157 kts | 254° |
| 2026-05-07 18:04 | 47.27946 | 11.44706 | 4611 ft | 127 kts | 248° |
| 2026-05-07 18:05 | 47.27635 | 11.43494 | 4514 ft | 126 kts | 247° |
| 2026-05-07 18:05 | 47.27283 | 11.42284 | 4201 ft | 133 kts | 246° |
| 2026-05-07 18:05 | 47.26906 | 11.41040 | 3767 ft | 132 kts | 250° |
| 2026-05-07 18:05 | 47.26618 | 11.39736 | 3203 ft | 136 kts | 255° |
| 2026-05-07 18:06 | 47.26443 | 11.38447 | 2899 ft | 128 kts | 262° |
| 2026-05-07 18:06 | 47.26320 | 11.37110 | 2289 ft | 134 kts | 262° |
| 2026-05-07 18:06 | 47.26174 | 11.35804 | 1955 ft | 126 kts | 262° |
| 2026-05-07 18:06 | 47.26043 | 11.34604 | 1907 ft | 114 kts | 261° |
| 2026-05-07 18:07 | 47.25989 | 11.34101 | 1908 ft | 1 kts | 257° |
| 2026-05-07 18:07 | 47.25958 | 11.33813 | 1914 ft | 36 kts | 261° |
| 2026-05-07 18:07 | 47.25913 | 11.33689 | 1911 ft | 0 kts | 142° |
| 2026-05-07 18:08 | 47.25936 | 11.33663 | 1914 ft | 15 kts | 141° |
| 2026-05-07 18:09 | 47.25960 | 11.33820 | 1914 ft | 44 kts | 82° |
| 2026-05-07 18:09 | 47.26019 | 11.34390 | 1909 ft | 57 kts | 79° |
| 2026-05-07 18:09 | 47.26079 | 11.34888 | 1907 ft | 35 kts | 80° |
| 2026-05-07 18:09 | 47.26091 | 11.35276 | 1899 ft | 19 kts | 153° |
| 2026-05-07 18:10 | 47.26020 | 11.35267 | 1903 ft | 16 kts | 182° |
| 2026-05-07 18:10 | 47.25992 | 11.35272 | 1894 ft | 0 kts | 167° |
| 2026-05-07 18:10 | 47.25988 | 11.35273 | 1896 ft | 0 kts | 166° |
| 2026-05-07 18:11 | 47.25909 | 11.35324 | 1900 ft | 21 kts | 108° |
| 2026-05-07 18:12 | 47.25887 | 11.35420 | 1896 ft | 1 kts | 81° |